Time;durP1;ratioP1;P1;durP2;ratioP2;P2;SDS_P1;SDS_P2;PMS_P1;PMS_P2;Temp;Humidity;BMP_temperature;BMP_pressure;BME280_temperature;BME280_humidity;BME280_pressure;Samples;Min_cycle;Max_cycle;Signal;HPM_P1;HPM_P2
2022/04/13 00:01:01;;;;;;;;;;;;;;;20.04;48.36;101217.59;5008720;28;5242;-56
2022/04/13 00:03:27;;;;;;;;;;;;;;;20.04;48.05;101217.59;5014305;28;4242;-55
2022/04/13 00:05:55;;;;;;;;;;;;;;;20.02;47.11;101208.88;5010492;28;4196;-56
2022/04/13 00:08:21;;;;;;;;;;;;;;;20.02;47.29;101206.00;5010815;28;4301;-57
2022/04/13 00:10:47;;;;;;;;;;;;;;;20.02;48.19;101211.75;5014856;28;4200;-56
2022/04/13 00:13:14;;;;;;;;;;;;;;;20.01;48.50;101207.34;5012699;28;4225;-56
2022/04/13 00:15:41;;;;;;;;;;;;;;;20.03;47.70;101203.84;5010574;28;4414;-55
2022/04/13 00:18:07;;;;;;;;;;;;;;;20.00;47.88;101211.63;5013356;28;5303;-53
2022/04/13 00:20:34;;;;;;;;;;;;;;;20.00;48.32;101194.38;5012813;28;4068;-55
2022/04/13 00:23:00;;;;;;;;;;;;;;;19.99;48.54;101207.25;5006333;28;4164;-56
2022/04/13 00:25:28;;;;;;;;;;;;;;;19.97;47.68;101204.25;5014920;28;4256;-56
2022/04/13 00:27:55;;;;;;;;;;;;;;;19.98;47.93;101208.66;5013962;28;4194;-56
2022/04/13 00:30:21;;;;;;;;;;;;;;;20.01;47.73;101198.72;5007062;28;4364;-54
2022/04/13 00:32:48;;;;;;;;;;;;;;;20.02;47.80;101202.34;5014870;28;4208;-53
2022/04/13 00:35:14;;;;;;;;;;;;;;;19.99;48.46;101190.00;5011010;28;6440;-53
2022/04/13 00:37:41;;;;;;;;;;;;;;;19.95;47.86;101189.81;5014121;28;4092;-56
2022/04/13 00:40:07;;;;;;;;;;;;;;;19.97;47.76;101198.50;5012400;28;4146;-53
2022/04/13 00:42:33;;;;;;;;;;;;;;;19.95;46.97;101198.44;5018811;28;4243;-56
2022/04/13 00:45:00;;;;;;;;;;;;;;;19.97;47.58;101197.78;5012990;28;4212;-58
2022/04/13 00:47:26;;;;;;;;;;;;;;;19.96;46.83;101202.78;5015622;28;4171;-55
2022/04/13 00:49:56;;;;;;;;;;;;;;;19.98;46.16;101200.03;5012736;28;4227;-55
2022/04/13 00:52:23;;;;;;;;;;;;;;;19.97;46.50;101207.13;5012489;28;4237;-56
2022/04/13 00:54:50;;;;;;;;;;;;;;;20.00;46.86;101205.88;5016394;28;4175;-56
2022/04/13 00:57:17;;;;;;;;;;;;;;;20.02;46.02;101206.00;5013101;28;4186;-55
2022/04/13 00:59:44;;;;;;;;;;;;;;;20.01;45.64;101193.00;5016607;28;4079;-54
2022/04/13 01:02:12;;;;;;;;;;;;;;;20.02;45.61;101200.25;5014238;28;4206;-56
2022/04/13 01:04:38;;;;;;;;;;;;;;;20.03;45.38;101201.72;4999859;28;4180;-55
2022/04/13 01:07:06;;;;;;;;;;;;;;;20.03;46.17;101195.22;5015873;28;4905;-55
2022/04/13 01:09:33;;;;;;;;;;;;;;;20.04;46.38;101202.47;5015772;28;5445;-56
2022/04/13 01:11:59;;;;;;;;;;;;;;;19.99;46.18;101201.50;5000223;28;5382;-57
2022/04/13 01:14:25;;;;;;;;;;;;;;;20.03;48.13;101200.97;5011653;28;4199;-52
2022/04/13 01:16:52;;;;;;;;;;;;;;;20.00;46.07;101200.13;5014976;28;4174;-55
2022/04/13 01:19:18;;;;;;;;;;;;;;;20.04;47.23;101196.72;5004304;28;5294;-56
2022/04/13 01:21:47;;;;;;;;;;;;;;;19.99;46.22;101189.25;5008448;28;4332;-55
2022/04/13 01:24:13;;;;;;;;;;;;;;;19.98;46.63;101205.78;5011585;28;5536;-55
2022/04/13 01:26:40;;;;;;;;;;;;;;;19.98;46.37;101200.03;5012112;28;4197;-55
2022/04/13 01:29:06;;;;;;;;;;;;;;;20.02;46.35;101203.13;5012312;28;5275;-56
2022/04/13 01:31:33;;;;;;;;;;;;;;;20.00;46.39;101191.50;5010298;28;5572;-55
2022/04/13 01:33:59;;;;;;;;;;;;;;;20.00;46.77;101182.16;5011017;28;4400;-60
2022/04/13 01:36:26;;;;;;;;;;;;;;;20.00;47.75;101208.75;5014446;28;4193;-55
2022/04/13 01:38:52;;;;;;;;;;;;;;;19.96;47.01;101202.78;5014027;28;4270;-54
2022/04/13 01:41:18;;;;;;;;;;;;;;;19.96;46.95;101196.28;5011476;28;4257;-56
2022/04/13 01:43:45;;;;;;;;;;;;;;;19.95;46.67;101195.56;5018050;28;5243;-55
2022/04/13 01:46:11;;;;;;;;;;;;;;;19.93;46.76;101198.31;5011890;28;5067;-56
2022/04/13 01:48:38;;;;;;;;;;;;;;;19.94;47.17;101199.78;5017457;28;4252;-55
2022/04/13 01:51:04;;;;;;;;;;;;;;;19.95;46.96;101194.78;5011521;28;4237;-53
2022/04/13 01:53:30;;;;;;;;;;;;;;;19.94;46.76;101199.78;5014098;28;4151;-55
2022/04/13 01:55:59;;;;;;;;;;;;;;;19.93;46.90;101198.31;5014289;28;5319;-52
2022/04/13 01:58:26;;;;;;;;;;;;;;;19.92;47.54;101196.81;5012748;28;4079;-54
2022/04/13 02:00:54;;;;;;;;;;;;;;;19.92;47.47;101196.81;5014734;28;4237;-55
2022/04/13 02:03:21;;;;;;;;;;;;;;;19.90;46.78;101187.34;5012336;28;5346;-54
2022/04/13 02:05:48;;;;;;;;;;;;;;;19.91;46.78;101194.59;5013659;28;4229;-55
2022/04/13 02:08:14;;;;;;;;;;;;;;;19.90;47.04;101193.81;5013815;28;4239;-54
2022/04/13 02:10:41;;;;;;;;;;;;;;;19.89;47.13;101192.34;5013337;28;4223;-55
2022/04/13 02:13:07;;;;;;;;;;;;;;;19.88;46.86;101196.59;5016850;28;4165;-55
2022/04/13 02:15:34;;;;;;;;;;;;;;;19.86;47.17;101190.75;5012401;28;4150;-56
2022/04/13 02:18:00;;;;;;;;;;;;;;;19.85;46.78;101183.50;5008688;28;4262;-56
2022/04/13 02:20:26;;;;;;;;;;;;;;;19.83;47.13;101184.13;5011881;28;4109;-53
2022/04/13 02:22:53;;;;;;;;;;;;;;;19.83;47.19;101189.13;5011057;28;4470;-54
2022/04/13 02:25:19;;;;;;;;;;;;;;;19.83;47.24;101183.38;5016735;28;5308;-56
2022/04/13 02:27:45;;;;;;;;;;;;;;;19.80;46.94;101181.81;5013939;28;5315;-53
2022/04/13 02:30:12;;;;;;;;;;;;;;;19.78;47.34;101181.69;5013471;28;4223;-55
2022/04/13 02:32:39;;;;;;;;;;;;;;;19.78;47.20;101178.81;5010135;28;4235;-53
2022/04/13 02:35:05;;;;;;;;;;;;;;;19.79;47.84;101171.66;5013782;28;4311;-54
2022/04/13 02:37:31;;;;;;;;;;;;;;;19.82;47.00;101182.66;5011760;28;5302;-54
2022/04/13 02:39:58;;;;;;;;;;;;;;;19.86;47.12;101179.25;5014136;28;4416;-54
2022/04/13 02:42:24;;;;;;;;;;;;;;;19.89;46.11;101175.09;5012894;28;4711;-54
2022/04/13 02:44:51;;;;;;;;;;;;;;;19.93;47.26;101169.56;5002831;28;4433;-55
2022/04/13 02:47:17;;;;;;;;;;;;;;;19.93;46.67;101163.81;5009054;28;4430;-55
2022/04/13 02:49:43;;;;;;;;;;;;;;;19.93;45.73;101169.56;5012759;28;4242;-54
2022/04/13 02:52:10;;;;;;;;;;;;;;;19.93;45.68;101158.06;5005369;28;4219;-55
2022/04/13 02:54:36;;;;;;;;;;;;;;;19.94;45.87;101153.81;5004163;28;4183;-54
2022/04/13 02:57:03;;;;;;;;;;;;;;;19.95;46.56;101161.06;5008476;28;4229;-56
2022/04/13 02:59:30;;;;;;;;;;;;;;;19.95;46.70;101166.81;5015198;28;4335;-55
2022/04/13 03:01:56;;;;;;;;;;;;;;;19.96;46.04;101167.56;5009845;28;4112;-56
2022/04/13 03:04:26;;;;;;;;;;;;;;;19.96;46.29;101159.66;5016946;28;5451;-54
2022/04/13 03:06:54;;;;;;;;;;;;;;;19.98;46.48;101161.91;5015116;28;4182;-56
2022/04/13 03:09:20;;;;;;;;;;;;;;;19.97;46.02;101161.16;5014706;28;4256;-56
2022/04/13 03:11:46;;;;;;;;;;;;;;;19.95;46.19;101166.81;5002060;28;4029;-55
2022/04/13 03:14:13;;;;;;;;;;;;;;;19.96;46.21;101156.78;5014526;28;4215;-56
2022/04/13 03:16:39;;;;;;;;;;;;;;;19.96;45.77;101153.19;5011453;28;4172;-55
2022/04/13 03:19:06;;;;;;;;;;;;;;;19.95;45.84;101161.06;5014560;28;5296;-55
2022/04/13 03:21:57;;;;;;;;;;;;;;;19.97;45.99;101157.53;5013427;28;5319;-56
2022/04/13 03:24:24;;;;;;;;;;;;;;;19.96;46.42;101156.78;5014592;28;4338;-56
2022/04/13 03:26:50;;;;;;;;;;;;;;;19.97;45.96;101158.28;5013653;28;4066;-57
2022/04/13 03:29:17;;;;;;;;;;;;;;;19.96;46.01;101156.78;5014226;28;4446;-56
2022/04/13 03:31:43;;;;;;;;;;;;;;;19.98;46.35;101156.16;5013690;28;4253;-55
2022/04/13 03:34:10;;;;;;;;;;;;;;;19.97;47.30;101169.78;5013150;28;4176;-56
2022/04/13 03:36:39;;;;;;;;;;;;;;;19.98;47.23;101156.91;5010971;28;4090;-55
2022/04/13 03:39:08;;;;;;;;;;;;;;;20.01;47.18;101160.63;5016298;28;5261;-55
2022/04/13 03:41:35;;;;;;;;;;;;;;;19.99;46.83;101167.00;5016325;28;4435;-51
2022/04/13 03:44:01;;;;;;;;;;;;;;;20.00;46.78;101159.88;5014699;28;5341;-55
2022/04/13 03:46:27;;;;;;;;;;;;;;;19.99;46.97;101155.50;5012500;28;4203;-55
2022/04/13 03:48:54;;;;;;;;;;;;;;;20.00;47.22;101162.03;5014742;28;4001;-54
2022/04/13 03:51:20;;;;;;;;;;;;;;;20.00;47.64;101162.03;5014632;28;4238;-53
2022/04/13 03:53:47;;;;;;;;;;;;;;;20.00;47.10;101162.75;5016104;28;4187;-54
2022/04/13 03:56:13;;;;;;;;;;;;;;;20.01;48.09;101163.50;5013947;28;4288;-54
2022/04/13 03:58:43;;;;;;;;;;;;;;;20.00;47.91;101168.50;5010732;28;4377;-55
2022/04/13 04:01:09;;;;;;;;;;;;;;;20.01;47.59;101172.88;5016772;28;5301;-55
2022/04/13 04:03:36;;;;;;;;;;;;;;;20.04;47.71;101168.72;5008465;28;4265;-53
2022/04/13 04:06:03;;;;;;;;;;;;;;;20.04;47.96;101165.84;5005558;28;4200;-55
2022/04/13 04:08:29;;;;;;;;;;;;;;;20.10;47.97;101171.16;5006348;28;4166;-54
2022/04/13 04:10:56;;;;;;;;;;;;;;;20.09;48.09;101170.44;5013800;28;4294;-54
2022/04/13 04:13:22;;;;;;;;;;;;;;;20.12;47.66;101182.03;5017077;28;4159;-54
2022/04/13 04:15:49;;;;;;;;;;;;;;;20.13;47.68;101181.38;5017278;28;4263;-55
2022/04/13 04:18:15;;;;;;;;;;;;;;;20.14;46.23;101170.66;5016949;28;4234;-54
2022/04/13 04:20:45;;;;;;;;;;;;;;;20.15;46.35;101187.25;5019514;28;4097;-53
2022/04/13 04:23:11;;;;;;;;;;;;;;;20.22;45.94;101188.31;4999865;28;5408;-58
2022/04/13 04:25:37;;;;;;;;;;;;;;;20.29;45.46;101187.22;5008957;28;4387;-58
2022/04/13 04:28:06;;;;;;;;;;;;;;;20.32;46.25;101191.72;5009664;28;4203;-58
2022/04/13 04:30:32;;;;;;;;;;;;;;;20.26;46.48;101183.50;5013113;28;4128;-58
2022/04/13 04:32:59;;;;;;;;;;;;;;;20.25;46.79;101184.16;5017878;28;4273;-58
2022/04/13 04:35:26;;;;;;;;;;;;;;;20.24;46.76;101188.41;5016475;28;4082;-58
2022/04/13 04:37:52;;;;;;;;;;;;;;;20.24;46.31;101179.78;5018679;28;4210;-58
2022/04/13 04:40:23;;;;;;;;;;;;;;;20.24;46.05;101179.78;5015559;28;4181;-58
2022/04/13 04:42:51;;;;;;;;;;;;;;;20.26;45.79;101177.03;5016468;28;4249;-58
2022/04/13 04:45:19;;;;;;;;;;;;;;;20.29;46.09;101187.22;5020178;28;5218;-57
2022/04/13 04:47:46;;;;;;;;;;;;;;;20.28;45.86;101180.00;5019231;28;4186;-58
2022/04/13 04:50:12;;;;;;;;;;;;;;;20.26;45.72;101182.78;5019181;28;4210;-58
2022/04/13 04:52:39;;;;;;;;;;;;;;;20.23;45.51;101192.69;5018422;28;5350;-58
2022/04/13 04:55:06;;;;;;;;;;;;;;;20.22;45.08;101189.03;5019374;28;4241;-57
2022/04/13 04:57:32;;;;;;;;;;;;;;;20.28;45.41;101191.50;5021350;28;4274;-59
2022/04/13 04:59:59;;;;;;;;;;;;;;;20.32;45.56;101190.94;5012031;28;5437;-59
2022/04/13 05:02:26;;;;;;;;;;;;;;;20.08;44.46;101186.16;5012824;28;4036;-61
2022/04/13 05:04:52;;;;;;;;;;;;;;;19.94;41.93;101191.19;5016125;28;4063;-61
2022/04/13 05:07:19;;;;;;;;;;;;;;;20.10;43.07;101188.41;5014251;28;4185;-60
2022/04/13 05:09:45;;;;;;;;;;;;;;;20.15;44.22;101184.38;5014385;28;4248;-60
2022/04/13 05:12:13;;;;;;;;;;;;;;;20.23;43.78;101184.06;5013223;28;5277;-60
2022/04/13 05:14:40;;;;;;;;;;;;;;;20.36;43.54;101186.16;5014083;28;4361;-59
2022/04/13 05:17:06;;;;;;;;;;;;;;;20.34;43.83;101186.09;5018037;28;4130;-60
2022/04/13 05:19:35;;;;;;;;;;;;;;;20.28;44.15;101188.63;5018796;28;4135;-60
2022/04/13 05:22:02;;;;;;;;;;;;;;;20.41;44.16;101190.75;5017960;28;4328;-60
2022/04/13 05:24:28;;;;;;;;;;;;;;;20.30;44.33;101195.22;5016865;28;4175;-60
2022/04/13 05:26:54;;;;;;;;;;;;;;;20.31;44.23;101193.09;5018070;28;3983;-60
2022/04/13 05:29:24;;;;;;;;;;;;;;;20.31;44.37;101201.72;5017963;28;4215;-61
2022/04/13 05:31:50;;;;;;;;;;;;;;;20.39;44.16;101207.91;5017669;28;4254;-60
2022/04/13 05:34:16;;;;;;;;;;;;;;;20.38;44.27;101200.66;5016675;28;4339;-60
2022/04/13 05:36:43;;;;;;;;;;;;;;;20.42;44.29;101206.63;5016976;28;4172;-60
2022/04/13 05:39:09;;;;;;;;;;;;;;;20.44;44.21;101209.59;5017522;28;4078;-60
2022/04/13 05:41:35;;;;;;;;;;;;;;;20.44;44.09;101208.88;5016882;28;4004;-60
2022/04/13 05:44:02;;;;;;;;;;;;;;;20.42;44.25;101214.50;5018007;28;5270;-60
2022/04/13 05:46:28;;;;;;;;;;;;;;;20.44;44.32;101212.47;5020757;28;4223;-60
2022/04/13 05:48:55;;;;;;;;;;;;;;;20.45;44.36;101222.59;5017654;28;4144;-59
2022/04/13 05:51:21;;;;;;;;;;;;;;;20.49;44.37;101210.56;5017176;28;4227;-60
2022/04/13 05:53:47;;;;;;;;;;;;;;;20.49;44.46;101208.41;5019190;28;5269;-60
2022/04/13 05:56:14;;;;;;;;;;;;;;;20.50;44.20;101221.44;5017646;28;4174;-60
2022/04/13 05:58:40;;;;;;;;;;;;;;;20.50;44.19;101212.03;5019023;28;4118;-60
2022/04/13 06:01:06;;;;;;;;;;;;;;;20.49;44.30;101216.31;5016686;28;4260;-61
2022/04/13 06:03:33;;;;;;;;;;;;;;;20.51;44.33;101219.28;5018321;28;4192;-60
2022/04/13 06:06:08;;;;;;;;;;;;;;;20.51;44.33;101225.78;5017592;28;4220;-60
2022/04/13 06:08:34;;;;;;;;;;;;;;;20.51;44.24;101225.78;5016240;28;4443;-60
2022/04/13 06:11:01;;;;;;;;;;;;;;;20.55;44.26;101231.00;5014758;28;5478;-60
2022/04/13 06:13:27;;;;;;;;;;;;;;;20.57;44.16;101227.50;5015912;28;4445;-60
2022/04/13 06:15:54;;;;;;;;;;;;;;;20.56;44.29;101226.75;5017517;28;4248;-60
2022/04/13 06:18:20;;;;;;;;;;;;;;;20.55;44.07;101224.50;5017431;28;5387;-60
2022/04/13 06:20:46;;;;;;;;;;;;;;;20.53;44.19;101233.78;5000503;28;4656;-60
2022/04/13 06:23:13;;;;;;;;;;;;;;;20.55;44.12;101242.53;5015184;28;5831;-60
2022/04/13 06:25:39;;;;;;;;;;;;;;;20.53;44.19;101233.78;5016352;28;4639;-61
2022/04/13 06:28:05;;;;;;;;;;;;;;;20.56;44.37;101231.75;5016218;28;4644;-61
2022/04/13 06:30:32;;;;;;;;;;;;;;;20.55;44.28;101236.00;5017789;28;4142;-60
2022/04/13 06:32:58;;;;;;;;;;;;;;;20.57;44.22;101239.00;5014693;28;5637;-60
2022/04/13 06:35:26;;;;;;;;;;;;;;;20.60;44.09;101240.63;5015640;28;7028;-60
2022/04/13 06:37:52;;;;;;;;;;;;;;;20.60;44.29;101237.75;5016885;28;4351;-60
2022/04/13 06:40:19;;;;;;;;;;;;;;;20.59;44.28;101236.25;5016464;28;4397;-60
2022/04/13 06:42:45;;;;;;;;;;;;;;;20.59;44.21;101245.66;5014367;28;4085;-59
2022/04/13 06:45:13;;;;;;;;;;;;;;;20.63;44.17;101242.22;4999295;28;4594;-60
2022/04/13 06:47:39;;;;;;;;;;;;;;;20.61;44.21;101250.75;5017213;28;5562;-60
2022/04/13 06:50:06;;;;;;;;;;;;;;;20.62;44.08;101252.25;5016277;28;5310;-60
2022/04/13 06:52:33;;;;;;;;;;;;;;;20.62;44.18;101252.25;5016735;28;5597;-60
2022/04/13 06:54:59;;;;;;;;;;;;;;;20.62;44.04;101246.50;5015294;28;4625;-64
2022/04/13 06:57:26;;;;;;;;;;;;;;;20.60;44.06;101238.50;5015116;28;4234;-60
2022/04/13 06:59:59;;;;;;;;;;;;;;;20.58;44.20;101240.53;5015993;28;4458;-60
2022/04/13 07:02:26;;;;;;;;;;;;;;;20.59;44.15;101239.13;5016400;28;4593;-60
2022/04/13 07:04:53;;;;;;;;;;;;;;;20.60;44.15;101237.75;5014729;28;4372;-60
2022/04/13 07:07:19;;;;;;;;;;;;;;;20.60;44.04;101241.38;5016147;28;5286;-60
2022/04/13 07:09:46;;;;;;;;;;;;;;;20.60;44.03;101241.38;5017023;28;5426;-60
2022/04/13 07:12:12;;;;;;;;;;;;;;;20.61;44.04;101244.97;5015731;28;5233;-60
2022/04/13 07:14:41;;;;;;;;;;;;;;;20.60;44.01;101255.00;5016619;28;4130;-60
2022/04/13 07:17:08;;;;;;;;;;;;;;;20.61;43.97;101256.50;5015068;28;4528;-60
2022/04/13 07:19:35;;;;;;;;;;;;;;;20.62;43.99;101258.00;5015710;28;4746;-60
2022/04/13 07:22:01;;;;;;;;;;;;;;;20.61;44.12;101253.63;5015703;28;5438;-60
2022/04/13 07:24:35;;;;;;;;;;;;;;;20.62;44.03;101252.25;5016367;28;4383;-60
2022/04/13 07:27:01;;;;;;;;;;;;;;;20.66;43.99;101252.44;5015174;28;4122;-60
2022/04/13 07:29:27;;;;;;;;;;;;;;;20.63;44.10;101265.22;5013818;28;4511;-60
2022/04/13 07:31:54;;;;;;;;;;;;;;;20.63;44.04;101260.22;5015772;28;5586;-60
2022/04/13 07:34:20;;;;;;;;;;;;;;;20.61;44.15;101259.38;5016420;28;4626;-60
2022/04/13 07:36:47;;;;;;;;;;;;;;;20.66;43.96;101272.56;5015913;28;4078;-60
2022/04/13 07:39:13;;;;;;;;;;;;;;;20.64;44.08;101264.59;5015907;28;5064;-60
2022/04/13 07:41:39;;;;;;;;;;;;;;;20.64;44.07;101261.72;5016573;28;4522;-60
2022/04/13 07:44:06;;;;;;;;;;;;;;;20.64;44.04;101260.97;5015328;28;4573;-59
2022/04/13 07:46:32;;;;;;;;;;;;;;;20.64;44.01;101261.72;5014839;28;3956;-60
2022/04/13 07:48:58;;;;;;;;;;;;;;;20.64;44.15;101267.47;5018508;28;4068;-60
2022/04/13 07:51:25;;;;;;;;;;;;;;;20.71;43.77;101271.41;5018807;28;5387;-60
2022/04/13 07:53:51;;;;;;;;;;;;;;;20.71;43.89;101266.41;5020370;28;4585;-61
2022/04/13 07:56:17;;;;;;;;;;;;;;;20.72;43.76;101267.13;5017429;28;4592;-60
2022/04/13 07:58:44;;;;;;;;;;;;;;;20.75;43.68;101265.84;5017387;28;4089;-60
2022/04/13 08:01:10;;;;;;;;;;;;;;;20.73;43.79;101267.88;5017943;28;4427;-60
2022/04/13 08:03:37;;;;;;;;;;;;;;;20.75;43.71;101271.59;5020902;28;4213;-60
2022/04/13 08:06:03;;;;;;;;;;;;;;;20.74;43.67;101270.13;5018531;28;4155;-60
2022/04/13 08:08:30;;;;;;;;;;;;;;;20.76;43.59;101278.13;5018693;28;4260;-60
2022/04/13 08:10:56;;;;;;;;;;;;;;;20.72;43.76;101278.66;5017710;28;4453;-60
2022/04/13 08:13:22;;;;;;;;;;;;;;;20.73;43.70;101270.75;5019095;28;4497;-60
2022/04/13 08:16:09;;;;;;;;;;;;;;;20.73;43.68;101279.38;5019013;28;4316;-60
2022/04/13 08:18:55;;;;;;;;;;;;;;;20.75;43.59;101276.63;5017964;28;4205;-60
2022/04/13 08:21:21;;;;;;;;;;;;;;;20.76;43.80;101276.00;5017414;28;4980;-60
2022/04/13 08:23:48;;;;;;;;;;;;;;;20.76;43.54;101272.38;5016613;28;4141;-60
2022/04/13 08:26:14;;;;;;;;;;;;;;;20.73;43.65;101274.41;5016899;28;4442;-60
2022/04/13 08:28:40;;;;;;;;;;;;;;;20.76;43.52;101286.75;5019005;28;4585;-60
2022/04/13 08:31:09;;;;;;;;;;;;;;;20.75;43.56;101277.34;5018081;28;5755;-60
2022/04/13 08:33:36;;;;;;;;;;;;;;;20.74;43.54;101275.88;5019318;28;4048;-60
2022/04/13 08:36:02;;;;;;;;;;;;;;;20.76;43.56;101284.63;5017425;28;4377;-60
2022/04/13 08:38:29;;;;;;;;;;;;;;;20.76;43.57;101269.50;5020776;28;4197;-60
2022/04/13 08:40:56;;;;;;;;;;;;;;;20.78;43.49;101276.09;5019291;28;4606;-60
2022/04/13 08:43:25;;;;;;;;;;;;;;;20.76;43.40;101278.88;5019944;28;5608;-60
2022/04/13 08:45:55;;;;;;;;;;;;;;;20.74;43.63;101272.25;5016628;28;5204;-60
2022/04/13 08:48:24;;;;;;;;;;;;;;;20.75;43.55;101274.47;5019224;28;5277;-60
2022/04/13 08:50:54;;;;;;;;;;;;;;;20.73;43.50;101271.53;5017984;28;4164;-60
2022/04/13 08:53:20;;;;;;;;;;;;;;;20.74;43.61;101270.13;5018163;28;5631;-60
2022/04/13 08:55:47;;;;;;;;;;;;;;;20.75;43.54;101262.97;5017264;28;4530;-60
2022/04/13 08:58:19;;;;;;;;;;;;;;;20.76;43.59;101263.75;4999451;28;4196;-61
2022/04/13 09:00:48;;;;;;;;;;;;;;;20.78;43.45;101264.59;5016117;28;5295;-61
2022/04/13 09:03:22;;;;;;;;;;;;;;;20.77;43.48;101265.94;5015264;28;4761;-60
2022/04/13 09:05:49;;;;;;;;;;;;;;;20.74;43.52;101266.50;5018645;28;4411;-61
2022/04/13 09:08:22;;;;;;;;;;;;;;;20.76;43.51;101255.84;5015366;28;4230;-60
2022/04/13 09:10:52;;;;;;;;;;;;;;;20.76;43.50;101255.09;5019161;28;4268;-60
2022/04/13 09:13:19;;;;;;;;;;;;;;;20.77;43.48;101251.56;5018278;28;4178;-60
2022/04/13 09:15:46;;;;;;;;;;;;;;;20.77;43.47;101251.56;5018678;28;4224;-60
2022/04/13 09:18:14;;;;;;;;;;;;;;;20.74;43.56;101249.97;5017416;28;4189;-60
2022/04/13 09:20:41;;;;;;;;;;;;;;;20.77;43.48;101250.81;5018934;28;4164;-60
2022/04/13 09:23:07;;;;;;;;;;;;;;;20.77;43.49;101254.44;5000625;28;4113;-60
2022/04/13 09:25:34;;;;;;;;;;;;;;;20.80;43.44;101247.41;5018742;28;4529;-60
2022/04/13 09:28:01;;;;;;;;;;;;;;;20.80;43.44;101253.19;5018225;28;4143;-61
2022/04/13 09:30:27;;;;;;;;;;;;;;;20.77;43.55;101256.59;5017416;28;4251;-60
2022/04/13 09:32:54;;;;;;;;;;;;;;;20.80;43.46;101249.53;5015848;28;4475;-60
2022/04/13 09:35:20;;;;;;;;;;;;;;;20.76;43.54;101250.09;5014988;28;4469;-60
2022/04/13 09:37:47;;;;;;;;;;;;;;;20.80;43.33;101250.31;5015488;28;4610;-60
2022/04/13 09:40:25;;;;;;;;;;;;;;;20.77;43.67;101251.56;5018116;28;4400;-60
2022/04/13 09:42:51;;;;;;;;;;;;;;;20.79;43.52;101242.28;5018548;28;4214;-60
2022/04/13 09:45:18;;;;;;;;;;;;;;;20.77;43.59;101240.06;5016458;28;4279;-60
2022/04/13 09:47:47;;;;;;;;;;;;;;;20.79;43.44;101245.19;5018068;28;4131;-60
2022/04/13 09:50:23;;;;;;;;;;;;;;;20.80;43.50;101249.53;5017132;28;5588;-60
2022/04/13 09:52:51;;;;;;;;;;;;;;;20.79;43.45;101237.28;5015598;28;5477;-60
2022/04/13 09:55:20;;;;;;;;;;;;;;;20.82;43.47;101236.00;5017405;28;4434;-60
2022/04/13 09:57:46;;;;;;;;;;;;;;;20.81;43.45;101239.53;5001025;28;5874;-60
2022/04/13 10:00:13;;;;;;;;;;;;;;;20.80;43.47;101235.91;5004775;28;5460;-60
2022/04/13 10:02:40;;;;;;;;;;;;;;;20.80;43.55;101238.78;5015710;28;4690;-60
2022/04/13 10:05:07;;;;;;;;;;;;;;;20.78;43.49;101235.81;5016969;28;6033;-60
2022/04/13 10:07:33;;;;;;;;;;;;;;;20.82;43.47;101241.00;5016704;28;4587;-60
2022/04/13 10:10:00;;;;;;;;;;;;;;;20.79;43.49;101243.03;5016533;28;4361;-60
2022/04/13 10:12:27;;;;;;;;;;;;;;;20.82;43.49;101238.88;5016610;28;4216;-60
2022/04/13 10:15:04;;;;;;;;;;;;;;;20.83;43.49;101243.25;5017352;28;4474;-60
2022/04/13 10:17:32;;;;;;;;;;;;;;;20.80;43.63;101243.78;5016384;28;4142;-60
2022/04/13 10:19:59;;;;;;;;;;;;;;;20.79;43.55;101245.91;5017736;28;5270;-60
2022/04/13 10:22:25;;;;;;;;;;;;;;;20.81;43.56;101234.50;5016085;28;6104;-60
2022/04/13 10:24:52;;;;;;;;;;;;;;;20.85;43.52;101234.72;5011834;28;5293;-60
2022/04/13 10:27:19;;;;;;;;;;;;;;;20.85;43.50;101233.97;5016373;28;4622;-60
2022/04/13 10:29:46;;;;;;;;;;;;;;;20.83;43.51;101225.97;5016819;28;5069;-61
2022/04/13 10:32:15;;;;;;;;;;;;;;;20.83;43.58;101231.75;5015853;28;4118;-60
2022/04/13 10:34:41;;;;;;;;;;;;;;;20.82;43.41;101235.25;5016433;28;4387;-60
2022/04/13 10:37:10;;;;;;;;;;;;;;;20.80;43.69;101240.91;5015627;28;4655;-60
2022/04/13 10:39:37;;;;;;;;;;;;;;;20.81;43.54;101234.50;5015075;28;4424;-60
2022/04/13 10:42:07;;;;;;;;;;;;;;;20.82;43.58;101238.13;5016342;28;4497;-60
2022/04/13 10:44:37;;;;;;;;;;;;;;;20.85;43.63;101234.72;5016691;28;4598;-61
2022/04/13 10:47:04;;;;;;;;;;;;;;;20.85;43.54;101234.72;5016079;28;4664;-60
2022/04/13 10:49:57;;;;;;;;;;;;;;;20.86;43.51;101227.56;5017169;28;4421;-60
2022/04/13 10:52:27;;;;;;;;;;;;;;;20.90;43.36;101224.88;5010613;28;4448;-60
2022/04/13 10:54:54;;;;;;;;;;;;;;;20.90;43.45;101224.88;5016003;28;5192;-60
2022/04/13 10:57:21;;;;;;;;;;;;;;;20.87;43.55;101220.44;5014034;28;5000;-60
2022/04/13 10:59:50;;;;;;;;;;;;;;;20.86;43.49;101218.94;4997515;28;5967;-60
2022/04/13 11:02:27;;;;;;;;;;;;;;;20.86;43.58;101213.16;5015482;28;4416;-60
2022/04/13 11:04:54;;;;;;;;;;;;;;;20.88;43.59;101216.16;5000664;28;4806;-61
2022/04/13 11:07:20;;;;;;;;;;;;;;;20.87;43.47;101211.06;5015936;28;5251;-60
2022/04/13 11:09:47;;;;;;;;;;;;;;;20.83;43.51;101205.84;5014650;28;4248;-60
2022/04/13 11:12:13;;;;;;;;;;;;;;;20.86;43.66;101210.28;5012524;28;4571;-60
2022/04/13 11:14:46;;;;;;;;;;;;;;;20.87;43.63;101211.78;5016612;28;4007;-60
2022/04/13 11:17:16;;;;;;;;;;;;;;;20.87;43.84;101202.41;5015892;28;4557;-60
2022/04/13 11:19:42;;;;;;;;;;;;;;;20.87;43.59;101211.78;5016084;28;5998;-61
2022/04/13 11:22:09;;;;;;;;;;;;;;;20.85;43.58;101208.81;5016382;28;4217;-61
2022/04/13 11:24:48;;;;;;;;;;;;;;;20.88;43.57;101204.63;5017117;28;5334;-60
2022/04/13 11:27:14;;;;;;;;;;;;;;;20.93;43.51;101206.31;5015353;28;4972;-60
2022/04/13 11:29:41;;;;;;;;;;;;;;;20.91;43.48;101214.13;5015055;28;4030;-60
2022/04/13 11:32:12;;;;;;;;;;;;;;;20.89;43.56;101211.91;5013779;28;4411;-60
2022/04/13 11:34:38;;;;;;;;;;;;;;;20.86;43.53;101207.41;5016676;28;4613;-60
2022/04/13 11:37:08;;;;;;;;;;;;;;;20.88;43.56;101207.50;5013651;28;4166;-60
2022/04/13 11:39:44;;;;;;;;;;;;;;;20.92;43.45;101204.84;5016032;28;4255;-60
2022/04/13 11:42:26;;;;;;;;;;;;;;;20.94;43.34;101207.09;5014740;28;4507;-60
2022/04/13 11:45:01;;;;;;;;;;;;;;;20.98;43.37;101206.53;5014004;28;4006;-60
2022/04/13 11:47:43;;;;;;;;;;;;;;;20.98;43.45;101224.56;5015532;28;5237;-60
2022/04/13 11:50:13;;;;;;;;;;;;;;;20.93;43.37;101212.06;5016822;28;4666;-60
2022/04/13 11:52:58;;;;;;;;;;;;;;;20.92;43.46;101216.34;5016110;28;4499;-60
2022/04/13 11:55:41;;;;;;;;;;;;;;;20.90;43.54;101209.75;5014180;28;5319;-60
2022/04/13 11:58:10;;;;;;;;;;;;;;;20.92;43.53;101210.59;5016551;28;4129;-60
2022/04/13 12:00:39;;;;;;;;;;;;;;;20.99;43.43;101208.78;5017268;28;3974;-60
2022/04/13 12:03:09;;;;;;;;;;;;;;;21.00;43.30;101192.97;5015708;28;5669;-61
2022/04/13 12:05:38;;;;;;;;;;;;;;;21.03;43.32;101203.22;5016864;28;5478;-61
2022/04/13 12:08:14;;;;;;;;;;;;;;;21.06;43.24;101218.47;5011629;28;5602;-62
2022/04/13 12:10:44;;;;;;;;;;;;;;;21.00;43.29;101198.00;5015538;28;4559;-60
2022/04/13 12:13:11;;;;;;;;;;;;;;;20.98;43.50;101195.00;5015688;28;5274;-60
2022/04/13 12:15:47;;;;;;;;;;;;;;;20.96;43.50;101206.41;4999943;28;5234;-60
2022/04/13 12:18:13;;;;;;;;;;;;;;;21.00;43.27;101186.47;5014796;28;4720;-60
2022/04/13 12:20:40;;;;;;;;;;;;;;;21.00;43.35;101198.00;5014903;28;5484;-60
2022/04/13 12:23:25;;;;;;;;;;;;;;;21.00;43.46;101190.09;5013330;28;4364;-61
2022/04/13 12:25:52;;;;;;;;;;;;;;;21.02;43.26;101192.34;5016241;28;4407;-60
2022/04/13 12:28:19;;;;;;;;;;;;;;;21.02;43.24;101200.97;5013403;28;5612;-60
2022/04/13 12:31:01;;;;;;;;;;;;;;;21.04;43.36;101198.19;5016422;28;4193;-60
2022/04/13 12:33:28;;;;;;;;;;;;;;;21.08;43.25;101192.66;5013331;28;4098;-60
2022/04/13 12:36:04;;;;;;;;;;;;;;;21.06;43.29;101196.16;5019587;28;4533;-60
2022/04/13 12:38:32;;;;;;;;;;;;;;;21.03;43.22;101191.69;5018550;28;5054;-60
2022/04/13 12:41:08;;;;;;;;;;;;;;;21.05;43.27;101194.69;5019150;28;4639;-60
2022/04/13 12:43:34;;;;;;;;;;;;;;;21.07;43.23;101186.16;5017383;28;5696;-60
2022/04/13 12:46:07;;;;;;;;;;;;;;;21.05;43.39;101200.44;5018235;28;4253;-61
2022/04/13 12:48:34;;;;;;;;;;;;;;;21.06;43.46;101201.19;5020139;28;4052;-60
2022/04/13 12:51:00;;;;;;;;;;;;;;;21.03;43.43;101185.94;5018310;28;4680;-61